createdAt,value
2018-04-22T00:02:23.222Z,14.10
2018-04-22T00:04:50.779Z,14.00
2018-04-22T00:07:18.247Z,14.00
2018-04-22T00:09:45.785Z,14.00
2018-04-22T00:12:13.311Z,14.00
2018-04-22T00:14:40.876Z,13.90
2018-04-22T00:17:09.131Z,13.90
2018-04-22T00:19:37.347Z,13.90
2018-04-22T00:22:04.829Z,13.90
2018-04-22T00:24:32.877Z,13.80
2018-04-22T00:27:00.993Z,13.80
2018-04-22T00:29:28.509Z,13.80
2018-04-22T00:31:56.035Z,13.70
2018-04-22T00:34:24.363Z,13.70
2018-04-22T00:36:51.887Z,13.70
2018-04-22T00:39:19.367Z,13.70
2018-04-22T00:41:46.872Z,13.70
2018-04-22T00:44:14.496Z,13.60
2018-04-22T00:46:42.536Z,13.60
2018-04-22T00:49:10.058Z,13.60
2018-04-22T00:51:37.557Z,13.60
2018-04-22T00:54:16.722Z,13.60
2018-04-22T00:56:44.369Z,13.50
2018-04-22T00:59:11.976Z,13.50
2018-04-22T01:01:39.915Z,13.50
2018-04-22T01:04:07.608Z,13.50
2018-04-22T01:06:35.222Z,13.50
2018-04-22T01:09:02.729Z,13.40
2018-04-22T01:11:31.002Z,13.40
2018-04-22T01:13:58.485Z,13.40
2018-04-22T01:16:25.990Z,13.40
2018-04-22T01:18:53.478Z,13.40
2018-04-22T01:21:20.988Z,13.30
2018-04-22T01:23:48.535Z,13.30
2018-04-22T01:26:16.788Z,13.20
2018-04-22T01:28:44.401Z,13.20
2018-04-22T01:31:11.930Z,13.20
2018-04-22T01:33:40.204Z,13.20
2018-04-22T01:36:08.476Z,13.10
2018-04-22T01:38:36.732Z,13.10
2018-04-22T01:41:04.245Z,13.10
2018-04-22T01:43:31.738Z,13.10
2018-04-22T01:45:59.505Z,13.00
2018-04-22T01:48:27.171Z,13.00
2018-04-22T01:50:55.297Z,13.00
2018-04-22T01:53:22.847Z,13.00
2018-04-22T01:55:50.363Z,12.90
2018-04-22T01:58:18.357Z,12.90
2018-04-22T02:00:46.673Z,12.90
2018-04-22T02:03:14.187Z,12.90
2018-04-22T02:05:42.812Z,12.90
2018-04-22T02:08:10.419Z,12.80
2018-04-22T02:10:37.937Z,12.80
2018-04-22T02:13:05.654Z,12.80
2018-04-22T02:15:33.957Z,12.70
2018-04-22T02:18:01.757Z,12.70
2018-04-22T02:20:29.263Z,12.70
2018-04-22T02:22:57.538Z,12.70
2018-04-22T02:25:25.155Z,12.70
2018-04-22T02:27:52.715Z,12.70
2018-04-22T02:30:20.284Z,12.70
2018-04-22T02:32:47.819Z,12.70
2018-04-22T02:35:15.440Z,12.60
2018-04-22T02:37:43.749Z,12.60
2018-04-22T02:40:11.321Z,12.60
2018-04-22T02:42:38.821Z,12.60
2018-04-22T02:45:06.314Z,12.60
2018-04-22T02:47:34.834Z,12.60
2018-04-22T02:50:02.990Z,12.60
2018-04-22T02:52:30.550Z,12.50
2018-04-22T02:54:58.071Z,12.50
2018-04-22T02:57:25.640Z,12.50
2018-04-22T02:59:53.277Z,12.50
2018-04-22T03:02:20.795Z,12.50
2018-04-22T03:04:48.322Z,12.40
2018-04-22T03:07:15.875Z,12.40
2018-04-22T03:09:44.131Z,12.40
2018-04-22T03:12:11.609Z,12.40
2018-04-22T03:14:39.101Z,12.30
2018-04-22T03:17:06.606Z,12.30
2018-04-22T03:19:34.106Z,12.30
2018-04-22T03:22:01.610Z,12.30
2018-04-22T03:24:29.836Z,12.30
2018-04-22T03:26:57.323Z,12.30
2018-04-22T03:29:25.611Z,12.30
2018-04-22T03:31:53.109Z,12.30
2018-04-22T03:34:21.717Z,12.20
2018-04-22T03:36:49.220Z,12.20
2018-04-22T03:39:16.721Z,12.20
2018-04-22T03:41:45.745Z,12.20
2018-04-22T03:44:13.698Z,12.20
2018-04-22T03:46:41.289Z,12.20
2018-04-22T03:49:08.788Z,12.20
2018-04-22T03:51:36.290Z,12.20
2018-04-22T03:54:03.827Z,12.30
2018-04-22T03:56:32.107Z,12.30
2018-04-22T03:58:59.613Z,12.30
2018-04-22T04:01:27.115Z,12.30
2018-04-22T04:03:55.400Z,12.40
2018-04-22T04:06:23.053Z,12.40
2018-04-22T04:08:51.622Z,12.40
2018-04-22T04:11:19.933Z,12.50
2018-04-22T04:13:47.517Z,12.50
2018-04-22T04:16:15.154Z,12.60
2018-04-22T04:19:03.527Z,12.60
2018-04-22T04:21:42.827Z,12.70
2018-04-22T04:24:32.699Z,12.80
2018-04-22T04:30:03.832Z,12.90
2018-04-22T04:32:31.343Z,13.10
2018-04-22T04:34:58.887Z,13.10
2018-04-22T04:37:26.901Z,13.30
2018-04-22T04:39:54.625Z,14.20
2018-04-22T04:42:22.299Z,15.30
2018-04-22T04:44:49.823Z,16.50
2018-04-22T04:47:17.306Z,17.60
2018-04-22T04:49:44.812Z,18.80
2018-04-22T04:52:13.081Z,19.60
2018-04-22T04:54:41.260Z,20.10
2018-04-22T04:57:08.768Z,20.80
2018-04-22T04:59:37.081Z,22.40
2018-04-22T05:02:05.405Z,22.30
2018-04-22T05:04:32.915Z,22.80
2018-04-22T05:07:00.416Z,23.40
2018-04-22T05:09:28.756Z,24.30
2018-04-22T05:11:56.631Z,24.30
2018-04-22T05:14:24.128Z,25.00
2018-04-22T05:16:51.665Z,25.50
2018-04-22T05:19:19.236Z,25.40
2018-04-22T05:21:46.757Z,25.30
2018-04-22T05:24:14.348Z,25.70
2018-04-22T05:26:41.859Z,25.70
2018-04-22T05:29:09.361Z,25.50
2018-04-22T05:31:37.103Z,26.10
2018-04-22T05:34:04.594Z,26.80
2018-04-22T05:36:32.228Z,27.90
2018-04-22T05:38:59.742Z,28.60
2018-04-22T05:41:27.313Z,29.60
2018-04-22T05:43:55.071Z,30.30
2018-04-22T05:46:22.608Z,31.30
2018-04-22T05:48:50.146Z,31.90
2018-04-22T05:51:17.960Z,32.10
2018-04-22T05:53:45.940Z,32.70
2018-04-22T05:56:14.220Z,33.20
2018-04-22T05:58:42.672Z,33.20
2018-04-22T06:01:10.439Z,33.20
2018-04-22T06:03:37.974Z,33.70
2018-04-22T06:06:05.512Z,33.80
2018-04-22T06:08:33.048Z,34.50
2018-04-22T06:11:00.551Z,35.00
2018-04-22T06:13:28.404Z,35.00
2018-04-22T06:15:55.926Z,34.80
2018-04-22T06:18:23.848Z,34.70
2018-04-22T06:20:51.348Z,34.70
2018-04-22T06:23:19.617Z,34.60
2018-04-22T06:25:47.224Z,34.60
2018-04-22T06:28:14.818Z,34.60
2018-04-22T06:30:43.073Z,34.90
2018-04-22T06:33:10.590Z,35.20
2018-04-22T06:35:38.310Z,35.40
2018-04-22T06:38:05.940Z,35.20
2018-04-22T06:40:33.425Z,35.70
2018-04-22T06:43:00.919Z,34.90
2018-04-22T06:45:29.222Z,34.60
2018-04-22T06:47:56.789Z,34.60
2018-04-22T06:50:24.357Z,34.80
2018-04-22T06:52:51.862Z,34.60
2018-04-22T06:55:19.357Z,34.50
2018-04-22T06:57:48.050Z,34.40
2018-04-22T07:00:17.274Z,34.20
2018-04-22T07:02:45.661Z,33.70
2018-04-22T07:05:13.947Z,33.50
2018-04-22T07:07:41.814Z,33.40
2018-04-22T07:10:09.333Z,33.90
2018-04-22T07:12:36.831Z,33.30
2018-04-22T07:15:04.373Z,32.40
2018-04-22T07:17:31.899Z,31.40
2018-04-22T07:20:00.303Z,31.00
2018-04-22T07:22:27.817Z,30.90
2018-04-22T07:24:56.147Z,30.40
2018-04-22T07:27:23.667Z,30.40
2018-04-22T07:29:51.879Z,29.80
2018-04-22T07:32:19.817Z,29.90
2018-04-22T07:34:48.123Z,29.50
2018-04-22T07:37:15.829Z,29.50
2018-04-22T07:39:43.945Z,29.70
2018-04-22T07:42:12.230Z,29.80
2018-04-22T07:44:39.897Z,29.80
2018-04-22T07:47:07.424Z,30.00
2018-04-22T07:49:35.718Z,30.00
2018-04-22T07:52:03.311Z,30.00
2018-04-22T07:54:30.837Z,30.50
2018-04-22T07:56:58.352Z,30.70
2018-04-22T07:59:25.981Z,30.10
2018-04-22T08:01:53.646Z,30.00
2018-04-22T08:04:21.882Z,29.30
2018-04-22T08:06:50.553Z,29.10
2018-04-22T08:09:18.103Z,29.10
2018-04-22T08:11:46.370Z,28.50
2018-04-22T08:14:13.926Z,28.40
2018-04-22T08:16:42.525Z,28.00
2018-04-22T08:19:10.111Z,27.80
2018-04-22T08:21:37.718Z,27.40
2018-04-22T08:24:05.224Z,27.20
2018-04-22T08:26:33.684Z,26.40
2018-04-22T08:29:01.419Z,26.30
2018-04-22T08:31:28.908Z,26.10
2018-04-22T08:33:56.470Z,25.80
2018-04-22T08:36:23.932Z,25.50
2018-04-22T08:38:51.532Z,25.30
2018-04-22T08:41:19.945Z,25.00
2018-04-22T08:43:47.645Z,24.90
2018-04-22T08:46:15.353Z,24.80
2018-04-22T08:48:42.851Z,24.80
2018-04-22T08:51:10.626Z,24.80
2018-04-22T08:53:38.263Z,24.70
2018-04-22T08:56:05.745Z,24.50
2018-04-22T08:58:33.436Z,24.60
2018-04-22T09:01:00.948Z,24.60
2018-04-22T09:03:28.487Z,24.30
2018-04-22T09:05:55.985Z,24.30
2018-04-22T09:08:23.701Z,24.20
2018-04-22T09:10:51.468Z,24.20
2018-04-22T09:13:20.458Z,24.10
2018-04-22T09:15:48.019Z,24.00
2018-04-22T09:18:15.792Z,24.00
2018-04-22T09:20:43.437Z,23.80
2018-04-22T09:23:10.969Z,23.60
2018-04-22T09:25:38.515Z,23.40
2018-04-22T09:28:06.122Z,23.20
2018-04-22T09:30:33.629Z,23.30
2018-04-22T09:33:01.155Z,23.40
2018-04-22T09:35:28.649Z,23.30
2018-04-22T09:37:56.303Z,23.30
2018-04-22T09:40:23.941Z,23.30
2018-04-22T09:42:51.487Z,23.10
2018-04-22T09:45:20.598Z,23.10
2018-04-22T09:47:48.094Z,23.10
2018-04-22T09:50:17.120Z,23.00
2018-04-22T09:52:45.532Z,23.20
2018-04-22T09:55:17.740Z,23.20
2018-04-22T09:57:45.262Z,23.20
2018-04-22T10:00:18.415Z,23.10
2018-04-22T10:02:48.983Z,23.00
2018-04-22T10:05:23.172Z,23.00
2018-04-22T10:07:51.513Z,22.80
2018-04-22T10:10:19.842Z,22.80
2018-04-22T10:12:47.344Z,23.10
2018-04-22T10:15:14.895Z,23.30
2018-04-22T10:17:42.375Z,23.30
2018-04-22T10:20:09.921Z,23.30
2018-04-22T10:22:37.858Z,23.30
2018-04-22T10:25:05.403Z,23.20
2018-04-22T10:27:33.181Z,23.20
2018-04-22T10:30:00.705Z,23.10
2018-04-22T10:32:28.982Z,23.00
2018-04-22T10:34:57.488Z,23.10
2018-04-22T10:37:26.450Z,23.30
2018-04-22T10:39:53.956Z,23.20
2018-04-22T10:42:21.466Z,23.30
2018-04-22T10:44:49.000Z,23.40
2018-04-22T10:47:16.557Z,23.60
2018-04-22T10:49:44.887Z,23.40
2018-04-22T10:52:12.398Z,23.40
2018-04-22T10:54:39.946Z,23.50
2018-04-22T10:57:08.174Z,23.50
2018-04-22T10:59:36.449Z,23.50
2018-04-22T11:02:04.771Z,23.30
2018-04-22T11:04:33.152Z,23.30
2018-04-22T11:07:00.690Z,23.30
2018-04-22T11:09:28.195Z,23.20
2018-04-22T11:11:55.711Z,23.20
2018-04-22T11:14:23.430Z,23.20
2018-04-22T11:16:51.171Z,23.10
2018-04-22T11:19:18.784Z,23.10
2018-04-22T11:21:46.378Z,23.30
2018-04-22T11:24:13.952Z,23.50
2018-04-22T11:26:41.658Z,23.60
2018-04-22T11:29:10.064Z,23.40
2018-04-22T11:31:38.370Z,23.40
2018-04-22T11:34:06.102Z,23.30
2018-04-22T11:36:33.591Z,23.40
2018-04-22T11:39:01.832Z,23.40
2018-04-22T11:41:29.352Z,23.50
2018-04-22T11:43:56.892Z,23.60
2018-04-22T11:46:24.699Z,23.70
2018-04-22T11:48:52.233Z,23.80
2018-04-22T11:51:20.068Z,23.90
2018-04-22T11:53:47.576Z,24.00
2018-04-22T11:56:15.882Z,24.00
2018-04-22T11:58:43.427Z,24.00
2018-04-22T12:01:10.979Z,23.90
2018-04-22T12:03:40.586Z,23.80
2018-04-22T12:06:08.123Z,23.80
2018-04-22T12:08:35.649Z,23.80
2018-04-22T12:11:03.193Z,23.80
2018-04-22T12:13:33.340Z,23.80
2018-04-22T12:16:00.950Z,23.90
2018-04-22T12:18:29.251Z,23.80
2018-04-22T12:20:56.782Z,23.80
2018-04-22T12:23:25.270Z,23.90
2018-04-22T12:25:53.822Z,23.90
2018-04-22T12:28:21.318Z,24.00
2018-04-22T12:30:49.089Z,24.10
2018-04-22T12:33:16.726Z,24.10
2018-04-22T12:35:44.329Z,24.20
2018-04-22T12:38:12.110Z,24.20
2018-04-22T12:40:39.655Z,24.30
2018-04-22T12:43:07.234Z,24.30
2018-04-22T12:45:34.876Z,24.30
2018-04-22T12:48:02.396Z,24.40
2018-04-22T12:50:30.075Z,24.40
2018-04-22T12:52:58.802Z,24.60
2018-04-22T12:55:26.361Z,24.60
2018-04-22T12:57:53.890Z,24.70
2018-04-22T13:00:22.159Z,24.80
2018-04-22T13:02:49.666Z,24.80
2018-04-22T13:05:17.816Z,24.90
2018-04-22T13:07:45.378Z,24.90
2018-04-22T13:10:12.896Z,25.00
2018-04-22T13:12:41.406Z,25.10
2018-04-22T13:15:08.968Z,25.00
2018-04-22T13:17:37.480Z,25.00
2018-04-22T13:20:04.987Z,24.90
2018-04-22T13:22:32.571Z,24.90
2018-04-22T13:25:01.123Z,24.70
2018-04-22T13:27:28.819Z,24.70
2018-04-22T13:29:56.370Z,24.70
2018-04-22T13:32:23.972Z,24.70
2018-04-22T13:34:51.605Z,24.70
2018-04-22T13:37:19.149Z,24.70
2018-04-22T13:39:46.937Z,24.70
2018-04-22T13:42:14.805Z,24.60
2018-04-22T13:44:42.313Z,24.60
2018-04-22T13:47:09.829Z,24.50
2018-04-22T13:49:37.655Z,24.30
2018-04-22T13:52:05.954Z,24.10
2018-04-22T13:54:33.503Z,24.00
2018-04-22T13:57:01.025Z,24.00
2018-04-22T13:59:28.556Z,24.00
2018-04-22T14:01:56.185Z,24.00
2018-04-22T14:04:23.733Z,24.00
2018-04-22T14:06:51.358Z,24.00
2018-04-22T14:09:19.232Z,24.00
2018-04-22T14:11:46.842Z,24.00
2018-04-22T14:14:14.342Z,24.00
2018-04-22T14:16:42.017Z,24.00
2018-04-22T14:19:09.526Z,24.10
2018-04-22T14:21:37.150Z,24.20
2018-04-22T14:24:05.442Z,24.30
2018-04-22T14:26:33.044Z,24.30
2018-04-22T14:29:00.627Z,24.40
2018-04-22T14:31:28.120Z,24.50
2018-04-22T14:33:55.749Z,24.50
2018-04-22T14:36:24.393Z,24.50
2018-04-22T14:38:51.958Z,24.50
2018-04-22T14:41:20.359Z,24.50
2018-04-22T14:43:59.615Z,24.50
2018-04-22T14:46:28.381Z,24.50
2018-04-22T14:49:04.981Z,24.50
2018-04-22T14:51:32.499Z,24.40
2018-04-22T14:54:00.119Z,24.50
2018-04-22T14:56:28.637Z,24.50
2018-04-22T14:58:56.401Z,24.40
2018-04-22T15:01:23.999Z,24.40
2018-04-22T15:03:51.547Z,24.40
2018-04-22T15:06:19.071Z,24.40
2018-04-22T15:08:46.607Z,24.40
2018-04-22T15:11:14.169Z,24.30
2018-04-22T15:13:41.795Z,24.10
2018-04-22T15:16:09.362Z,24.10
2018-04-22T15:18:37.096Z,24.10
2018-04-22T15:21:04.631Z,24.00
2018-04-22T15:23:32.196Z,24.00
2018-04-22T15:25:59.741Z,24.00
2018-04-22T15:28:28.135Z,24.00
2018-04-22T15:30:55.654Z,24.00
2018-04-22T15:33:23.201Z,24.00
2018-04-22T15:35:50.928Z,23.90
2018-04-22T15:38:18.460Z,23.90
2018-04-22T15:40:45.975Z,23.90
2018-04-22T15:43:13.525Z,23.90
2018-04-22T15:45:41.119Z,24.00
2018-04-22T15:48:08.678Z,24.00
2018-04-22T15:50:36.318Z,24.00
2018-04-22T15:53:03.838Z,23.90
2018-04-22T15:55:31.460Z,23.90
2018-04-22T15:57:58.963Z,23.90
2018-04-22T16:00:26.485Z,23.90
2018-04-22T16:02:53.998Z,23.90
2018-04-22T16:05:21.504Z,23.90
2018-04-22T16:07:49.138Z,24.00
2018-04-22T16:10:16.846Z,23.90
2018-04-22T16:12:45.181Z,24.00
2018-04-22T16:15:12.685Z,24.00
2018-04-22T16:17:41.636Z,23.90
2018-04-22T16:20:09.159Z,23.90
2018-04-22T16:22:36.866Z,23.80
2018-04-22T16:25:04.554Z,23.80
2018-04-22T16:27:32.350Z,23.70
2018-04-22T16:29:59.956Z,23.60
2018-04-22T16:32:27.579Z,23.40
2018-04-22T16:34:55.118Z,23.40
2018-04-22T16:37:22.798Z,23.40
2018-04-22T16:39:50.326Z,23.30
2018-04-22T16:42:17.863Z,23.30
2018-04-22T16:44:45.513Z,23.30
2018-04-22T16:47:13.068Z,23.20
2018-04-22T16:49:41.583Z,23.20
2018-04-22T16:52:09.185Z,23.20
2018-04-22T16:54:36.954Z,23.20
2018-04-22T16:57:04.723Z,23.20
2018-04-22T16:59:32.266Z,23.20
2018-04-22T17:01:59.938Z,23.30
2018-04-22T17:04:27.601Z,23.30
2018-04-22T17:06:55.222Z,23.40
2018-04-22T17:09:22.899Z,23.40
2018-04-22T17:11:50.533Z,23.30
2018-04-22T17:14:18.103Z,23.30
2018-04-22T17:16:45.807Z,23.30
2018-04-22T17:19:14.168Z,23.30
2018-04-22T17:21:42.278Z,23.20
2018-04-22T17:24:10.021Z,23.20
2018-04-22T17:26:38.450Z,23.10
2018-04-22T17:29:06.077Z,23.10
2018-04-22T17:31:33.612Z,23.00
2018-04-22T17:34:01.936Z,22.90
2018-04-22T17:36:29.488Z,22.90
2018-04-22T17:38:57.280Z,22.90
2018-04-22T17:41:24.782Z,22.80
2018-04-22T17:43:52.354Z,22.70
2018-04-22T17:46:19.911Z,22.70
2018-04-22T17:48:47.476Z,22.60
2018-04-22T17:51:15.009Z,22.50
2018-04-22T17:53:43.433Z,22.20
2018-04-22T17:56:10.932Z,22.20
2018-04-22T17:58:38.535Z,22.10
2018-04-22T18:01:06.051Z,22.00
2018-04-22T18:03:33.882Z,21.90
2018-04-22T18:06:01.453Z,21.80
2018-04-22T18:08:29.122Z,21.70
2018-04-22T18:10:56.834Z,21.60
2018-04-22T18:13:24.398Z,21.50
2018-04-22T18:15:52.066Z,21.50
2018-04-22T18:18:19.619Z,21.50
2018-04-22T18:20:47.200Z,21.40
2018-04-22T18:23:14.740Z,21.30
2018-04-22T18:25:42.285Z,21.30
2018-04-22T18:28:10.630Z,21.10
2018-04-22T18:30:38.254Z,21.10
2018-04-22T18:33:06.388Z,21.10
2018-04-22T18:35:34.038Z,21.10
2018-04-22T18:38:01.622Z,21.10
2018-04-22T18:40:29.192Z,21.00
2018-04-22T18:42:57.579Z,21.00
2018-04-22T18:45:25.352Z,20.90
2018-04-22T18:47:53.854Z,20.90
2018-04-22T18:50:21.433Z,20.80
2018-04-22T18:52:49.030Z,20.80
2018-04-22T18:55:16.634Z,20.70
2018-04-22T18:57:45.016Z,20.70
2018-04-22T19:00:12.765Z,20.70
2018-04-22T19:02:40.285Z,20.60
2018-04-22T19:05:07.993Z,20.60
2018-04-22T19:07:35.964Z,20.50
2018-04-22T19:10:03.820Z,20.50
2018-04-22T19:12:31.314Z,20.50
2018-04-22T19:14:58.873Z,20.40
2018-04-22T19:17:26.682Z,20.40
2018-04-22T19:19:54.260Z,20.40
2018-04-22T19:22:22.695Z,20.40
2018-04-22T19:24:50.408Z,20.30
2018-04-22T19:27:17.939Z,20.30
2018-04-22T19:29:46.257Z,20.20
2018-04-22T19:32:13.765Z,20.20
2018-04-22T19:34:41.857Z,20.20
2018-04-22T19:37:14.304Z,20.10
2018-04-22T19:39:41.873Z,20.10
2018-04-22T19:42:09.380Z,20.10
2018-04-22T19:44:37.031Z,20.10
2018-04-22T19:47:04.554Z,20.10
2018-04-22T19:49:32.902Z,20.10
2018-04-22T19:52:00.424Z,20.00
2018-04-22T19:54:27.979Z,20.10
2018-04-22T19:56:55.560Z,20.10
2018-04-22T19:59:23.085Z,20.10
2018-04-22T20:01:50.639Z,20.10
2018-04-22T20:04:18.342Z,20.10
2018-04-22T20:06:45.955Z,20.00
2018-04-22T20:09:14.716Z,19.90
2018-04-22T20:11:42.337Z,19.90
2018-04-22T20:14:10.024Z,19.90
2018-04-22T20:16:38.424Z,19.90
2018-04-22T20:19:05.945Z,19.90
2018-04-22T20:21:33.517Z,19.90
2018-04-22T20:24:01.346Z,19.90
2018-04-22T20:26:29.383Z,19.90
2018-04-22T20:28:57.101Z,19.90
2018-04-22T20:31:24.829Z,19.90
2018-04-22T20:33:53.289Z,19.80
2018-04-22T20:36:21.659Z,19.80
2018-04-22T20:38:49.192Z,19.80
2018-04-22T20:41:17.221Z,19.80
2018-04-22T20:43:44.743Z,19.80
2018-04-22T20:46:12.981Z,19.80
2018-04-22T20:48:40.574Z,19.80
2018-04-22T20:51:08.112Z,19.80
2018-04-22T20:53:35.726Z,19.80
2018-04-22T20:56:03.299Z,19.80
2018-04-22T20:58:31.017Z,19.80
2018-04-22T21:00:58.739Z,19.80
2018-04-22T21:03:26.449Z,19.70
2018-04-22T21:05:54.101Z,19.70
2018-04-22T21:08:21.705Z,19.80
2018-04-22T21:10:49.294Z,19.70
2018-04-22T21:13:16.930Z,19.70
2018-04-22T21:15:44.488Z,19.80
2018-04-22T21:18:12.019Z,19.90
2018-04-22T21:20:39.604Z,19.90
2018-04-22T21:23:07.217Z,20.00
2018-04-22T21:25:34.933Z,20.10
2018-04-22T21:28:02.452Z,20.10
2018-04-22T21:30:30.073Z,20.20
2018-04-22T21:32:57.816Z,20.20
2018-04-22T21:35:25.930Z,20.20
2018-04-22T21:37:53.502Z,20.30
2018-04-22T21:40:21.070Z,20.30
2018-04-22T21:42:48.781Z,20.30
2018-04-22T21:45:17.215Z,20.20
2018-04-22T21:47:45.338Z,20.20
2018-04-22T21:50:12.855Z,20.20
2018-04-22T21:52:40.374Z,20.10
2018-04-22T21:55:07.900Z,20.10
2018-04-22T21:57:35.468Z,20.10
2018-04-22T22:00:03.022Z,20.00
2018-04-22T22:02:30.571Z,20.00
2018-04-22T22:04:58.814Z,20.00
2018-04-22T22:07:26.497Z,20.00
2018-04-22T22:09:54.000Z,20.00
2018-04-22T22:12:22.268Z,19.90
2018-04-22T22:14:50.629Z,19.90
2018-04-22T22:17:18.375Z,19.90
2018-04-22T22:19:45.897Z,19.90
2018-04-22T22:22:13.508Z,19.90
2018-04-22T22:24:41.028Z,19.80
2018-04-22T22:27:08.570Z,19.80
2018-04-22T22:29:37.044Z,19.80
2018-04-22T22:32:04.571Z,19.80
2018-04-22T22:34:32.072Z,19.80
2018-04-22T22:36:59.625Z,19.80
2018-04-22T22:39:27.136Z,19.80
2018-04-22T22:41:54.707Z,19.80
2018-04-22T22:44:22.207Z,19.80
2018-04-22T22:46:49.730Z,19.80
2018-04-22T22:49:17.851Z,19.80
2018-04-22T22:51:45.389Z,19.80
2018-04-22T22:54:12.886Z,19.80
2018-04-22T22:56:40.539Z,19.80
2018-04-22T22:59:08.076Z,19.80
2018-04-22T23:01:35.794Z,19.80
2018-04-22T23:04:03.315Z,19.70
2018-04-22T23:06:31.168Z,19.70
2018-04-22T23:08:59.438Z,19.60
2018-04-22T23:11:29.957Z,19.60
2018-04-22T23:13:57.471Z,19.60
2018-04-22T23:16:24.997Z,19.60
2018-04-22T23:18:52.572Z,19.50
2018-04-22T23:21:20.135Z,19.50
2018-04-22T23:23:47.694Z,19.40
2018-04-22T23:26:15.984Z,19.30
2018-04-22T23:28:43.520Z,19.30
2018-04-22T23:31:11.042Z,19.30
2018-04-22T23:33:38.649Z,19.30
2018-04-22T23:36:06.228Z,19.20
2018-04-22T23:38:33.770Z,19.20
2018-04-22T23:41:01.365Z,19.20
2018-04-22T23:43:29.023Z,19.10
2018-04-22T23:45:56.768Z,19.10
2018-04-22T23:48:24.934Z,19.10
2018-04-22T23:50:52.432Z,19.00
2018-04-22T23:53:20.370Z,19.00
2018-04-22T23:55:47.902Z,18.90
2018-04-22T23:58:15.422Z,18.90
